sensor_id;sensor_type;location;lat;lon;timestamp;pressure;altitude;pressure_sealevel;temperature;humidity
31285;BME280;56605;51.516;6.742;2023-04-22T00:00:11;100697.97;;;8.31;100.00
31285;BME280;56605;51.516;6.742;2023-04-22T00:02:37;100695.56;;;8.01;100.00
31285;BME280;56605;51.516;6.742;2023-04-22T00:05:04;100705.31;;;8.10;100.00
31285;BME280;56605;51.516;6.742;2023-04-22T00:07:30;100705.22;;;8.20;100.00
31285;BME280;56605;51.516;6.742;2023-04-22T00:09:56;100709.41;;;8.05;100.00
31285;BME280;56605;51.516;6.742;2023-04-22T00:12:21;100711.69;;;7.99;100.00
31285;BME280;56605;51.516;6.742;2023-04-22T00:14:46;100701.66;;;7.93;100.00
31285;BME280;56605;51.516;6.742;2023-04-22T00:17:12;100694.13;;;7.89;100.00
31285;BME280;56605;51.516;6.742;2023-04-22T00:19:37;100704.69;;;7.80;100.00
31285;BME280;56605;51.516;6.742;2023-04-22T00:22:02;100702.13;;;7.89;100.00
31285;BME280;56605;51.516;6.742;2023-04-22T00:24:28;100701.50;;;7.95;100.00
31285;BME280;56605;51.516;6.742;2023-04-22T00:26:54;100708.81;;;8.11;100.00
31285;BME280;56605;51.516;6.742;2023-04-22T00:29:19;100701.03;;;8.18;100.00
31285;BME280;56605;51.516;6.742;2023-04-22T00:31:44;100698.22;;;8.01;100.00
31285;BME280;56605;51.516;6.742;2023-04-22T00:34:10;100689.59;;;7.99;100.00
31285;BME280;56605;51.516;6.742;2023-04-22T00:36:35;100692.56;;;8.14;100.00
31285;BME280;56605;51.516;6.742;2023-04-22T00:39:00;100693.53;;;7.95;100.00
31285;BME280;56605;51.516;6.742;2023-04-22T00:41:26;100692.16;;;7.91;100.00
31285;BME280;56605;51.516;6.742;2023-04-22T00:43:52;100687.00;;;8.07;100.00
31285;BME280;56605;51.516;6.742;2023-04-22T00:46:18;100682.44;;;7.99;100.00
31285;BME280;56605;51.516;6.742;2023-04-22T00:48:44;100673.47;;;8.01;100.00
31285;BME280;56605;51.516;6.742;2023-04-22T00:51:09;100683.06;;;7.93;100.00
31285;BME280;56605;51.516;6.742;2023-04-22T00:53:35;100685.63;;;7.85;100.00
31285;BME280;56605;51.516;6.742;2023-04-22T00:56:00;100677.16;;;7.71;100.00
31285;BME280;56605;51.516;6.742;2023-04-22T00:58:27;100669.91;;;7.92;100.00
31285;BME280;56605;51.516;6.742;2023-04-22T01:00:53;100678.19;;;8.07;100.00
31285;BME280;56605;51.516;6.742;2023-04-22T01:03:19;100673.84;;;8.06;100.00
31285;BME280;56605;51.516;6.742;2023-04-22T01:05:47;100674.78;;;7.96;100.00
31285;BME280;56605;51.516;6.742;2023-04-22T01:08:13;100681.22;;;7.94;100.00
31285;BME280;56605;51.516;6.742;2023-04-22T01:10:40;100674.63;;;7.80;100.00
31285;BME280;56605;51.516;6.742;2023-04-22T01:13:05;100672.47;;;7.83;100.00
31285;BME280;56605;51.516;6.742;2023-04-22T01:15:31;100673.03;;;8.05;100.00
31285;BME280;56605;51.516;6.742;2023-04-22T01:17:57;100670.69;;;8.02;100.00
31285;BME280;56605;51.516;6.742;2023-04-22T01:20:23;100668.81;;;8.21;100.00
31285;BME280;56605;51.516;6.742;2023-04-22T01:22:53;100665.41;;;8.29;100.00
31285;BME280;56605;51.516;6.742;2023-04-22T01:25:20;100677.00;;;8.64;100.00
31285;BME280;56605;51.516;6.742;2023-04-22T01:27:45;100677.03;;;8.72;100.00
31285;BME280;56605;51.516;6.742;2023-04-22T01:30:10;100666.56;;;8.53;100.00
31285;BME280;56605;51.516;6.742;2023-04-22T01:32:38;100679.53;;;8.74;100.00
31285;BME280;56605;51.516;6.742;2023-04-22T01:35:04;100674.31;;;8.64;100.00
31285;BME280;56605;51.516;6.742;2023-04-22T01:37:29;100678.03;;;8.71;100.00
31285;BME280;56605;51.516;6.742;2023-04-22T01:39:56;100676.72;;;8.31;100.00
31285;BME280;56605;51.516;6.742;2023-04-22T01:42:22;100677.59;;;8.40;100.00
31285;BME280;56605;51.516;6.742;2023-04-22T01:44:48;100676.09;;;8.55;100.00
31285;BME280;56605;51.516;6.742;2023-04-22T01:47:13;100673.28;;;8.38;100.00
31285;BME280;56605;51.516;6.742;2023-04-22T01:49:39;100680.34;;;8.48;100.00
31285;BME280;56605;51.516;6.742;2023-04-22T01:52:04;100675.03;;;8.30;100.00
31285;BME280;56605;51.516;6.742;2023-04-22T01:54:29;100678.25;;;8.33;100.00
31285;BME280;56605;51.516;6.742;2023-04-22T01:56:55;100678.75;;;8.37;100.00
31285;BME280;56605;51.516;6.742;2023-04-22T01:59:22;100670.72;;;8.29;100.00
31285;BME280;56605;51.516;6.742;2023-04-22T02:01:47;100671.06;;;8.52;100.00
31285;BME280;56605;51.516;6.742;2023-04-22T02:04:13;100674.44;;;8.36;100.00
31285;BME280;56605;51.516;6.742;2023-04-22T02:06:38;100678.34;;;8.50;100.00
31285;BME280;56605;51.516;6.742;2023-04-22T02:09:04;100668.69;;;8.49;100.00
31285;BME280;56605;51.516;6.742;2023-04-22T02:11:29;100679.75;;;8.36;100.00
31285;BME280;56605;51.516;6.742;2023-04-22T02:13:55;100682.16;;;8.47;100.00
31285;BME280;56605;51.516;6.742;2023-04-22T02:16:20;100679.66;;;8.46;100.00
31285;BME280;56605;51.516;6.742;2023-04-22T02:18:47;100685.44;;;8.41;100.00
31285;BME280;56605;51.516;6.742;2023-04-22T02:21:12;100674.69;;;8.24;100.00
31285;BME280;56605;51.516;6.742;2023-04-22T02:23:38;100669.78;;;8.38;100.00
31285;BME280;56605;51.516;6.742;2023-04-22T02:26:04;100666.97;;;8.40;100.00
31285;BME280;56605;51.516;6.742;2023-04-22T02:28:29;100664.72;;;8.53;100.00
31285;BME280;56605;51.516;6.742;2023-04-22T02:30:55;100668.81;;;8.39;100.00
31285;BME280;56605;51.516;6.742;2023-04-22T02:33:20;100661.56;;;8.49;100.00
31285;BME280;56605;51.516;6.742;2023-04-22T02:35:45;100666.97;;;8.58;100.00
31285;BME280;56605;51.516;6.742;2023-04-22T02:38:11;100667.13;;;8.56;100.00
31285;BME280;56605;51.516;6.742;2023-04-22T02:40:36;100662.69;;;8.65;100.00
31285;BME280;56605;51.516;6.742;2023-04-22T02:43:01;100661.94;;;8.55;100.00
31285;BME280;56605;51.516;6.742;2023-04-22T02:45:27;100658.00;;;8.41;100.00
31285;BME280;56605;51.516;6.742;2023-04-22T02:47:52;100647.09;;;8.07;100.00
31285;BME280;56605;51.516;6.742;2023-04-22T02:50:17;100651.66;;;8.15;100.00
31285;BME280;56605;51.516;6.742;2023-04-22T02:52:43;100646.94;;;8.09;100.00
31285;BME280;56605;51.516;6.742;2023-04-22T02:55:08;100644.28;;;8.09;100.00
31285;BME280;56605;51.516;6.742;2023-04-22T02:57:34;100645.78;;;8.30;100.00
31285;BME280;56605;51.516;6.742;2023-04-22T02:59:59;100641.97;;;8.32;100.00
31285;BME280;56605;51.516;6.742;2023-04-22T03:02:25;100647.56;;;8.21;100.00
31285;BME280;56605;51.516;6.742;2023-04-22T03:04:50;100640.50;;;8.11;100.00
31285;BME280;56605;51.516;6.742;2023-04-22T03:07:18;100642.34;;;8.11;100.00
31285;BME280;56605;51.516;6.742;2023-04-22T03:09:43;100634.34;;;8.11;100.00
31285;BME280;56605;51.516;6.742;2023-04-22T03:12:09;100635.75;;;8.23;100.00
31285;BME280;56605;51.516;6.742;2023-04-22T03:14:34;100628.97;;;8.29;100.00
31285;BME280;56605;51.516;6.742;2023-04-22T03:17:00;100630.13;;;8.27;100.00
31285;BME280;56605;51.516;6.742;2023-04-22T03:19:25;100628.72;;;8.14;100.00
31285;BME280;56605;51.516;6.742;2023-04-22T03:21:50;100625.53;;;8.10;100.00
31285;BME280;56605;51.516;6.742;2023-04-22T03:24:15;100621.94;;;8.20;100.00
31285;BME280;56605;51.516;6.742;2023-04-22T03:26:41;100616.78;;;8.18;100.00
31285;BME280;56605;51.516;6.742;2023-04-22T03:29:06;100614.44;;;8.15;100.00
31285;BME280;56605;51.516;6.742;2023-04-22T03:31:31;100611.16;;;8.21;100.00
31285;BME280;56605;51.516;6.742;2023-04-22T03:33:56;100610.28;;;8.12;100.00
31285;BME280;56605;51.516;6.742;2023-04-22T03:36:22;100618.47;;;8.01;100.00
31285;BME280;56605;51.516;6.742;2023-04-22T03:38:47;100609.97;;;7.97;100.00
31285;BME280;56605;51.516;6.742;2023-04-22T03:41:12;100606.03;;;8.02;100.00
31285;BME280;56605;51.516;6.742;2023-04-22T03:43:38;100615.00;;;8.01;100.00
31285;BME280;56605;51.516;6.742;2023-04-22T03:46:03;100602.38;;;8.03;100.00
31285;BME280;56605;51.516;6.742;2023-04-22T03:48:28;100604.50;;;7.99;100.00
31285;BME280;56605;51.516;6.742;2023-04-22T03:50:58;100600.03;;;7.99;100.00
31285;BME280;56605;51.516;6.742;2023-04-22T03:53:24;100600.94;;;8.08;100.00
31285;BME280;56605;51.516;6.742;2023-04-22T03:55:49;100596.75;;;8.06;100.00
31285;BME280;56605;51.516;6.742;2023-04-22T03:58:15;100603.97;;;7.95;100.00
31285;BME280;56605;51.516;6.742;2023-04-22T04:00:40;100600.50;;;7.95;100.00
31285;BME280;56605;51.516;6.742;2023-04-22T04:03:05;100599.81;;;7.93;100.00
31285;BME280;56605;51.516;6.742;2023-04-22T04:05:31;100598.75;;;7.85;100.00
31285;BME280;56605;51.516;6.742;2023-04-22T04:07:56;100599.44;;;7.88;100.00
31285;BME280;56605;51.516;6.742;2023-04-22T04:10:21;100592.88;;;7.82;100.00
31285;BME280;56605;51.516;6.742;2023-04-22T04:12:46;100595.38;;;8.02;100.00
31285;BME280;56605;51.516;6.742;2023-04-22T04:15:12;100589.47;;;8.08;100.00
31285;BME280;56605;51.516;6.742;2023-04-22T04:17:37;100584.88;;;8.18;100.00
31285;BME280;56605;51.516;6.742;2023-04-22T04:20:03;100591.25;;;8.25;100.00
31285;BME280;56605;51.516;6.742;2023-04-22T04:22:28;100587.66;;;8.35;100.00
31285;BME280;56605;51.516;6.742;2023-04-22T04:24:53;100589.72;;;8.23;100.00
31285;BME280;56605;51.516;6.742;2023-04-22T04:27:21;100590.19;;;8.18;100.00
31285;BME280;56605;51.516;6.742;2023-04-22T04:29:47;100583.00;;;8.10;100.00
31285;BME280;56605;51.516;6.742;2023-04-22T04:32:13;100585.81;;;8.09;100.00
31285;BME280;56605;51.516;6.742;2023-04-22T04:34:39;100581.78;;;8.05;100.00
31285;BME280;56605;51.516;6.742;2023-04-22T04:37:04;100580.31;;;8.10;100.00
31285;BME280;56605;51.516;6.742;2023-04-22T04:39:30;100579.44;;;8.02;100.00
31285;BME280;56605;51.516;6.742;2023-04-22T04:41:57;100569.34;;;8.05;100.00
31285;BME280;56605;51.516;6.742;2023-04-22T04:44:25;100573.84;;;8.13;100.00
31285;BME280;56605;51.516;6.742;2023-04-22T04:46:51;100572.41;;;8.19;100.00
31285;BME280;56605;51.516;6.742;2023-04-22T04:49:18;100573.50;;;8.08;100.00
31285;BME280;56605;51.516;6.742;2023-04-22T04:51:44;100573.06;;;7.94;100.00
31285;BME280;56605;51.516;6.742;2023-04-22T04:54:10;100571.00;;;8.06;100.00
31285;BME280;56605;51.516;6.742;2023-04-22T04:56:35;100566.84;;;8.04;100.00
31285;BME280;56605;51.516;6.742;2023-04-22T04:59:00;100567.72;;;8.12;100.00
31285;BME280;56605;51.516;6.742;2023-04-22T05:01:25;100569.75;;;8.19;100.00
31285;BME280;56605;51.516;6.742;2023-04-22T05:03:51;100560.56;;;8.13;100.00
31285;BME280;56605;51.516;6.742;2023-04-22T05:06:16;100562.03;;;8.07;100.00
31285;BME280;56605;51.516;6.742;2023-04-22T05:08:41;100555.75;;;8.08;100.00
31285;BME280;56605;51.516;6.742;2023-04-22T05:11:07;100550.56;;;8.07;100.00
31285;BME280;56605;51.516;6.742;2023-04-22T05:13:32;100557.34;;;8.28;100.00
31285;BME280;56605;51.516;6.742;2023-04-22T05:15:57;100551.50;;;8.24;100.00
31285;BME280;56605;51.516;6.742;2023-04-22T05:18:23;100551.97;;;8.19;100.00
31285;BME280;56605;51.516;6.742;2023-04-22T05:20:49;100559.94;;;8.19;100.00
31285;BME280;56605;51.516;6.742;2023-04-22T05:23:14;100550.44;;;8.43;100.00
31285;BME280;56605;51.516;6.742;2023-04-22T05:25:40;100562.69;;;8.54;100.00
31285;BME280;56605;51.516;6.742;2023-04-22T05:28:05;100562.53;;;8.56;100.00
31285;BME280;56605;51.516;6.742;2023-04-22T05:30:30;100565.53;;;8.61;100.00
31285;BME280;56605;51.516;6.742;2023-04-22T05:32:55;100569.59;;;8.47;100.00
31285;BME280;56605;51.516;6.742;2023-04-22T05:35:21;100565.53;;;8.61;100.00
31285;BME280;56605;51.516;6.742;2023-04-22T05:37:46;100563.91;;;8.68;100.00
31285;BME280;56605;51.516;6.742;2023-04-22T05:40:11;100559.28;;;8.79;100.00
31285;BME280;56605;51.516;6.742;2023-04-22T05:42:37;100562.78;;;8.79;100.00
31285;BME280;56605;51.516;6.742;2023-04-22T05:45:02;100570.97;;;8.86;100.00
31285;BME280;56605;51.516;6.742;2023-04-22T05:47:28;100568.13;;;8.87;100.00
31285;BME280;56605;51.516;6.742;2023-04-22T05:49:54;100564.44;;;8.80;100.00
31285;BME280;56605;51.516;6.742;2023-04-22T05:52:19;100561.97;;;8.87;100.00
31285;BME280;56605;51.516;6.742;2023-04-22T05:54:44;100568.84;;;9.06;100.00
31285;BME280;56605;51.516;6.742;2023-04-22T05:57:10;100569.00;;;9.05;100.00
31285;BME280;56605;51.516;6.742;2023-04-22T05:59:35;100566.19;;;9.06;100.00
31285;BME280;56605;51.516;6.742;2023-04-22T06:02:00;100563.88;;;9.11;100.00
31285;BME280;56605;51.516;6.742;2023-04-22T06:04:26;100568.94;;;9.39;100.00
31285;BME280;56605;51.516;6.742;2023-04-22T06:06:51;100571.94;;;9.36;100.00
31285;BME280;56605;51.516;6.742;2023-04-22T06:09:18;100570.78;;;9.47;100.00
31285;BME280;56605;51.516;6.742;2023-04-22T06:11:44;100570.97;;;9.54;100.00
31285;BME280;56605;51.516;6.742;2023-04-22T06:14:09;100566.63;;;9.61;100.00
31285;BME280;56605;51.516;6.742;2023-04-22T06:16:34;100568.31;;;9.71;100.00
31285;BME280;56605;51.516;6.742;2023-04-22T06:19:00;100568.16;;;9.72;100.00
31285;BME280;56605;51.516;6.742;2023-04-22T06:21:25;100565.78;;;10.02;100.00
31285;BME280;56605;51.516;6.742;2023-04-22T06:23:50;100568.09;;;10.22;100.00
31285;BME280;56605;51.516;6.742;2023-04-22T06:26:16;100573.06;;;10.34;100.00
31285;BME280;56605;51.516;6.742;2023-04-22T06:28:41;100564.56;;;10.38;100.00
31285;BME280;56605;51.516;6.742;2023-04-22T06:31:06;100566.75;;;10.26;100.00
31285;BME280;56605;51.516;6.742;2023-04-22T06:33:32;100565.25;;;10.40;100.00
31285;BME280;56605;51.516;6.742;2023-04-22T06:35:57;100558.75;;;10.26;100.00
31285;BME280;56605;51.516;6.742;2023-04-22T06:38:23;100557.94;;;10.26;100.00
31285;BME280;56605;51.516;6.742;2023-04-22T06:40:48;100555.56;;;10.31;100.00
31285;BME280;56605;51.516;6.742;2023-04-22T06:43:13;100549.06;;;10.42;100.00
31285;BME280;56605;51.516;6.742;2023-04-22T06:45:38;100556.94;;;10.27;100.00
31285;BME280;56605;51.516;6.742;2023-04-22T06:48:04;100556.41;;;10.32;100.00
31285;BME280;56605;51.516;6.742;2023-04-22T06:50:29;100555.25;;;10.34;100.00
31285;BME280;56605;51.516;6.742;2023-04-22T06:52:55;100549.69;;;10.44;100.00
31285;BME280;56605;51.516;6.742;2023-04-22T06:55:20;100546.00;;;10.62;100.00
31285;BME280;56605;51.516;6.742;2023-04-22T06:57:45;100547.44;;;10.81;100.00
31285;BME280;56605;51.516;6.742;2023-04-22T07:00:11;100541.72;;;10.93;100.00
31285;BME280;56605;51.516;6.742;2023-04-22T07:02:37;100540.13;;;11.07;100.00
31285;BME280;56605;51.516;6.742;2023-04-22T07:05:02;100530.47;;;11.29;100.00
31285;BME280;56605;51.516;6.742;2023-04-22T07:07:27;100542.03;;;11.45;100.00
31285;BME280;56605;51.516;6.742;2023-04-22T07:09:53;100535.38;;;11.64;100.00
31285;BME280;56605;51.516;6.742;2023-04-22T07:12:18;100541.44;;;11.81;100.00
31285;BME280;56605;51.516;6.742;2023-04-22T07:14:44;100534.88;;;12.07;100.00
31285;BME280;56605;51.516;6.742;2023-04-22T07:17:10;100525.75;;;12.47;100.00
31285;BME280;56605;51.516;6.742;2023-04-22T07:19:36;100531.81;;;12.71;100.00
31285;BME280;56605;51.516;6.742;2023-04-22T07:22:01;100527.81;;;12.97;100.00
31285;BME280;56605;51.516;6.742;2023-04-22T07:24:27;100520.53;;;13.12;100.00
31285;BME280;56605;51.516;6.742;2023-04-22T07:26:53;100521.06;;;13.23;100.00
31285;BME280;56605;51.516;6.742;2023-04-22T07:29:18;100515.13;;;13.27;100.00
31285;BME280;56605;51.516;6.742;2023-04-22T07:31:43;100506.75;;;13.37;100.00
31285;BME280;56605;51.516;6.742;2023-04-22T07:34:08;100500.13;;;13.55;100.00
31285;BME280;56605;51.516;6.742;2023-04-22T07:36:35;100503.06;;;13.60;100.00
31285;BME280;56605;51.516;6.742;2023-04-22T07:39:00;100487.78;;;13.82;100.00
31285;BME280;56605;51.516;6.742;2023-04-22T07:41:26;100497.00;;;14.02;100.00
31285;BME280;56605;51.516;6.742;2023-04-22T07:43:51;100502.59;;;14.07;100.00
31285;BME280;56605;51.516;6.742;2023-04-22T07:46:17;100494.03;;;14.25;100.00
31285;BME280;56605;51.516;6.742;2023-04-22T07:48:42;100493.34;;;14.58;100.00
31285;BME280;56605;51.516;6.742;2023-04-22T07:51:07;100484.88;;;14.62;100.00
31285;BME280;56605;51.516;6.742;2023-04-22T07:53:33;100481.19;;;14.63;100.00
31285;BME280;56605;51.516;6.742;2023-04-22T07:56:00;100486.97;;;14.60;100.00
31285;BME280;56605;51.516;6.742;2023-04-22T07:58:26;100483.75;;;14.85;100.00
31285;BME280;56605;51.516;6.742;2023-04-22T08:00:51;100486.09;;;15.08;100.00
31285;BME280;56605;51.516;6.742;2023-04-22T08:03:17;100473.00;;;14.91;100.00
31285;BME280;56605;51.516;6.742;2023-04-22T08:05:42;100467.88;;;14.96;100.00
31285;BME280;56605;51.516;6.742;2023-04-22T08:08:07;100462.53;;;15.17;100.00
31285;BME280;56605;51.516;6.742;2023-04-22T08:10:32;100449.94;;;15.31;100.00
31285;BME280;56605;51.516;6.742;2023-04-22T08:12:58;100461.09;;;15.41;100.00
31285;BME280;56605;51.516;6.742;2023-04-22T08:15:23;100453.84;;;15.42;100.00
31285;BME280;56605;51.516;6.742;2023-04-22T08:17:49;100464.81;;;15.61;100.00
31285;BME280;56605;51.516;6.742;2023-04-22T08:20:15;100454.03;;;15.74;100.00
31285;BME280;56605;51.516;6.742;2023-04-22T08:22:42;100463.94;;;15.94;100.00
31285;BME280;56605;51.516;6.742;2023-04-22T08:25:07;100471.63;;;15.97;100.00
31285;BME280;56605;51.516;6.742;2023-04-22T08:27:33;100478.44;;;16.00;100.00
31285;BME280;56605;51.516;6.742;2023-04-22T08:29:59;100463.53;;;16.10;100.00
31285;BME280;56605;51.516;6.742;2023-04-22T08:32:24;100467.22;;;16.16;100.00
31285;BME280;56605;51.516;6.742;2023-04-22T08:34:50;100461.66;;;16.04;100.00
31285;BME280;56605;51.516;6.742;2023-04-22T08:37:15;100469.44;;;16.40;100.00
31285;BME280;56605;51.516;6.742;2023-04-22T08:39:41;100460.47;;;16.53;100.00
31285;BME280;56605;51.516;6.742;2023-04-22T08:42:06;100461.47;;;16.97;100.00
31285;BME280;56605;51.516;6.742;2023-04-22T08:44:34;100451.09;;;17.33;97.68
31285;BME280;56605;51.516;6.742;2023-04-22T08:47:00;100440.13;;;17.72;93.66
31285;BME280;56605;51.516;6.742;2023-04-22T08:49:25;100457.19;;;17.47;92.88
31285;BME280;56605;51.516;6.742;2023-04-22T08:51:52;100453.38;;;17.30;93.13
31285;BME280;56605;51.516;6.742;2023-04-22T08:54:18;100449.69;;;17.24;91.02
31285;BME280;56605;51.516;6.742;2023-04-22T08:56:43;100444.75;;;17.46;93.46
31285;BME280;56605;51.516;6.742;2023-04-22T08:59:10;100440.41;;;17.45;89.85
31285;BME280;56605;51.516;6.742;2023-04-22T09:01:37;100436.41;;;17.73;89.63
31285;BME280;56605;51.516;6.742;2023-04-22T09:04:03;100437.59;;;17.59;91.26
31285;BME280;56605;51.516;6.742;2023-04-22T09:06:31;100420.00;;;17.94;92.06
31285;BME280;56605;51.516;6.742;2023-04-22T09:08:56;100424.97;;;18.16;85.19
31285;BME280;56605;51.516;6.742;2023-04-22T09:11:25;100425.59;;;17.73;87.09
31285;BME280;56605;51.516;6.742;2023-04-22T09:13:52;100425.41;;;17.49;87.23
31285;BME280;56605;51.516;6.742;2023-04-22T09:16:18;100425.84;;;17.72;86.93
31285;BME280;56605;51.516;6.742;2023-04-22T09:18:43;100429.16;;;18.11;85.53
31285;BME280;56605;51.516;6.742;2023-04-22T09:21:11;100421.66;;;18.32;84.93
31285;BME280;56605;51.516;6.742;2023-04-22T09:23:48;100433.75;;;18.60;83.12
31285;BME280;56605;51.516;6.742;2023-04-22T09:26:14;100429.88;;;18.99;80.56
31285;BME280;56605;51.516;6.742;2023-04-22T09:29:12;100427.38;;;18.85;78.11
31285;BME280;56605;51.516;6.742;2023-04-22T09:31:37;100428.53;;;19.08;76.83
31285;BME280;56605;51.516;6.742;2023-04-22T09:34:05;100431.97;;;18.97;79.08
31285;BME280;56605;51.516;6.742;2023-04-22T09:36:32;100433.81;;;19.15;77.06
31285;BME280;56605;51.516;6.742;2023-04-22T09:39:05;100433.47;;;19.23;75.65
31285;BME280;56605;51.516;6.742;2023-04-22T09:41:36;100419.19;;;20.24;74.39
31285;BME280;56605;51.516;6.742;2023-04-22T09:44:03;100419.78;;;20.14;71.30
31285;BME280;56605;51.516;6.742;2023-04-22T09:46:30;100411.09;;;20.41;72.87
31285;BME280;56605;51.516;6.742;2023-04-22T09:48:57;100424.56;;;20.36;70.86
31285;BME280;56605;51.516;6.742;2023-04-22T09:51:23;100425.28;;;20.89;68.98
31285;BME280;56605;51.516;6.742;2023-04-22T09:54:09;100429.00;;;21.18;67.89
31285;BME280;56605;51.516;6.742;2023-04-22T09:56:44;100431.28;;;21.43;67.62
31285;BME280;56605;51.516;6.742;2023-04-22T09:59:12;100428.44;;;21.72;66.65
31285;BME280;56605;51.516;6.742;2023-04-22T10:01:38;100429.84;;;21.01;68.70
31285;BME280;56605;51.516;6.742;2023-04-22T10:04:06;100410.09;;;20.59;68.81
31285;BME280;56605;51.516;6.742;2023-04-22T10:06:32;100422.91;;;20.35;69.45
31285;BME280;56605;51.516;6.742;2023-04-22T10:08:58;100412.84;;;20.47;69.61
31285;BME280;56605;51.516;6.742;2023-04-22T10:11:24;100413.91;;;20.75;67.23
31285;BME280;56605;51.516;6.742;2023-04-22T10:13:49;100418.75;;;21.02;67.49
31285;BME280;56605;51.516;6.742;2023-04-22T10:16:18;100417.59;;;20.86;67.76
31285;BME280;56605;51.516;6.742;2023-04-22T10:18:44;100411.00;;;20.65;69.70
31285;BME280;56605;51.516;6.742;2023-04-22T10:21:10;100403.41;;;20.21;69.48
31285;BME280;56605;51.516;6.742;2023-04-22T10:23:36;100393.59;;;20.61;68.16
31285;BME280;56605;51.516;6.742;2023-04-22T10:26:04;100406.97;;;21.71;65.20
31285;BME280;56605;51.516;6.742;2023-04-22T10:28:29;100399.06;;;21.29;66.29
31285;BME280;56605;51.516;6.742;2023-04-22T10:30:55;100403.00;;;21.05;66.78
31285;BME280;56605;51.516;6.742;2023-04-22T10:36:10;100399.53;;;20.46;70.41
31285;BME280;56605;51.516;6.742;2023-04-22T10:41:13;100409.06;;;22.53;61.98
31285;BME280;56605;51.516;6.742;2023-04-22T10:43:47;100412.19;;;22.39;62.03
31285;BME280;56605;51.516;6.742;2023-04-22T10:49:18;100398.84;;;22.38;60.51
31285;BME280;56605;51.516;6.742;2023-04-22T10:51:48;100393.25;;;22.77;62.02
31285;BME280;56605;51.516;6.742;2023-04-22T10:57:09;100392.19;;;23.11;59.94
31285;BME280;56605;51.516;6.742;2023-04-22T11:02:10;100394.25;;;22.99;62.43
31285;BME280;56605;51.516;6.742;2023-04-22T11:04:37;100388.47;;;23.66;60.35
31285;BME280;56605;51.516;6.742;2023-04-22T11:15:05;100391.19;;;23.66;59.81
31285;BME280;56605;51.516;6.742;2023-04-22T11:17:30;100380.22;;;23.50;59.67
31285;BME280;56605;51.516;6.742;2023-04-22T11:19:59;100385.13;;;23.48;60.67
31285;BME280;56605;51.516;6.742;2023-04-22T11:22:25;100380.53;;;22.83;60.81
31285;BME280;56605;51.516;6.742;2023-04-22T11:24:59;100375.53;;;23.02;61.27
31285;BME280;56605;51.516;6.742;2023-04-22T11:27:25;100367.97;;;22.77;61.17
31285;BME280;56605;51.516;6.742;2023-04-22T11:32:29;100394.38;;;21.42;66.44
31285;BME280;56605;51.516;6.742;2023-04-22T11:34:55;100391.25;;;20.99;67.96
31285;BME280;56605;51.516;6.742;2023-04-22T11:37:21;100380.38;;;20.35;70.54
31285;BME280;56605;51.516;6.742;2023-04-22T11:39:47;100385.75;;;20.64;70.16
31285;BME280;56605;51.516;6.742;2023-04-22T11:42:12;100386.34;;;20.67;70.91
31285;BME280;56605;51.516;6.742;2023-04-22T11:44:38;100387.38;;;20.48;70.21
31285;BME280;56605;51.516;6.742;2023-04-22T11:47:03;100384.00;;;20.87;70.49
31285;BME280;56605;51.516;6.742;2023-04-22T11:49:28;100380.63;;;21.71;68.43
31285;BME280;56605;51.516;6.742;2023-04-22T11:51:57;100378.81;;;21.37;67.28
31285;BME280;56605;51.516;6.742;2023-04-22T11:54:49;100371.16;;;21.91;64.65
31285;BME280;56605;51.516;6.742;2023-04-22T11:57:14;100364.38;;;21.94;65.51
31285;BME280;56605;51.516;6.742;2023-04-22T11:59:42;100361.09;;;22.41;63.45
31285;BME280;56605;51.516;6.742;2023-04-22T12:02:07;100368.94;;;22.38;63.92
31285;BME280;56605;51.516;6.742;2023-04-22T12:04:40;100360.56;;;21.33;66.59
31285;BME280;56605;51.516;6.742;2023-04-22T12:07:06;100367.50;;;21.63;69.10
31285;BME280;56605;51.516;6.742;2023-04-22T12:09:34;100362.09;;;23.34;64.28
31285;BME280;56605;51.516;6.742;2023-04-22T12:12:02;100351.22;;;22.96;61.95
31285;BME280;56605;51.516;6.742;2023-04-22T12:14:31;100357.69;;;21.79;64.85
31285;BME280;56605;51.516;6.742;2023-04-22T12:16:57;100358.38;;;21.12;67.40
31285;BME280;56605;51.516;6.742;2023-04-22T12:19:25;100364.00;;;21.85;66.95
31285;BME280;56605;51.516;6.742;2023-04-22T12:21:54;100356.91;;;22.89;63.19
31285;BME280;56605;51.516;6.742;2023-04-22T12:24:26;100366.22;;;22.38;63.89
31285;BME280;56605;51.516;6.742;2023-04-22T12:26:52;100364.97;;;22.51;65.72
31285;BME280;56605;51.516;6.742;2023-04-22T12:29:25;100370.16;;;23.56;61.35
31285;BME280;56605;51.516;6.742;2023-04-22T12:31:51;100379.88;;;23.41;61.96
31285;BME280;56605;51.516;6.742;2023-04-22T12:34:16;100367.13;;;22.76;62.47
31285;BME280;56605;51.516;6.742;2023-04-22T12:36:41;100374.13;;;22.67;63.35
31285;BME280;56605;51.516;6.742;2023-04-22T12:39:07;100367.91;;;22.44;64.05
31285;BME280;56605;51.516;6.742;2023-04-22T12:41:32;100367.22;;;22.87;62.93
31285;BME280;56605;51.516;6.742;2023-04-22T12:43:57;100369.09;;;23.19;61.01
31285;BME280;56605;51.516;6.742;2023-04-22T12:46:22;100354.22;;;21.84;63.67
31285;BME280;56605;51.516;6.742;2023-04-22T12:48:48;100357.50;;;22.96;63.59
31285;BME280;56605;51.516;6.742;2023-04-22T12:51:13;100358.69;;;24.18;61.13
31285;BME280;56605;51.516;6.742;2023-04-22T12:53:41;100363.94;;;24.51;58.83
31285;BME280;56605;51.516;6.742;2023-04-22T12:56:07;100357.69;;;24.71;58.56
31285;BME280;56605;51.516;6.742;2023-04-22T12:58:32;100361.03;;;23.83;59.54
31285;BME280;56605;51.516;6.742;2023-04-22T13:00:58;100363.78;;;22.64;63.39
31285;BME280;56605;51.516;6.742;2023-04-22T13:03:23;100357.28;;;22.15;65.26
31285;BME280;56605;51.516;6.742;2023-04-22T13:05:49;100350.19;;;21.69;66.37